This is the latest recevied weather packets stored in our database for station/object kj4yre. If no packets are shown the sender has not sent any weather packets the latest 10 day(s).
| Time | Temp. | Humidity | Pressure | Rain* | Wind** | Luminosity | Snow |
|---|---|---|---|---|---|---|---|
| 1777962136 | 17.22° C | 73% | 1014.8 hPa | 0 mm | - | - | - |
| 1777960935 | 17.78° C | 72% | 1014.8 hPa | 0 mm | - | - | - |
| 1777960036 | 17.78° C | 72% | 1014.8 hPa | 0 mm | - | - | - |
| 1777959137 | 17.78° C | 72% | 1014.9 hPa | 0 mm | - | - | - |
| 1777958836 | 17.78° C | 72% | 1014.9 hPa | 0 mm | - | - | - |
| 1777957636 | 17.78° C | 72% | 1014.8 hPa | 0 mm | - | - | - |
| 1777956737 | 17.78° C | 72% | 1014.8 hPa | 0 mm | - | - | - |
| 1777956137 | 18.33° C | 72% | 1014.8 hPa | 0 mm | - | - | - |
| 1777955236 | 18.33° C | 72% | 1014.8 hPa | 0 mm | - | - | - |
| 1777954636 | 18.33° C | 72% | 1014.7 hPa | 0 mm | - | - | - |
| 1777953741 | 17.78° C | 71% | 1014.5 hPa | 0 mm | - | - | - |
| 1777953135 | 18.33° C | 69% | 1014.5 hPa | 0 mm | - | - | - |
| 1777951337 | 18.33° C | 63% | 1014.3 hPa | 0 mm | - | - | - |
| 1777951035 | 18.33° C | 61% | 1014.3 hPa | 0 mm | - | - | - |
| 1777949536 | 17.78° C | 60% | 1014.2 hPa | 0 mm | - | - | - |
| 1777947736 | 18.33° C | 59% | 1013.9 hPa | 0 mm | - | - | - |
| 1777947136 | 18.33° C | 59% | 1013.8 hPa | 0 mm | - | - | - |
| 1777944436 | 18.89° C | 56% | 1013.6 hPa | 0 mm | - | - | - |
| 1777943836 | 18.89° C | 55% | 1013.5 hPa | 0 mm | - | - | - |
| 1777943537 | 18.89° C | 57% | 1013.5 hPa | 0 mm | - | - | - |
| 1777942937 | 18.89° C | 57% | 1013.5 hPa | 0 mm | - | - | - |
| 1777941435 | 18.89° C | 57% | 1013.4 hPa | 0 mm | - | - | - |
| 1777939336 | 20.56° C | 52% | 1012.9 hPa | 0 mm | - | - | - |
| 1777939035 | 21.11° C | 51% | 1012.9 hPa | 0 mm | - | - | - |
| 1777931535 | 26.67° C | 29% | 1012.4 hPa | 0 mm | - | - | - |
* Rain latest hour (hover to see other rain measurements)
** Current wind speed in m/s (hover to see current wind gust speed)